createdAt,value
2022-11-06T00:03:44.786Z,100535.13
2022-11-06T00:08:46.078Z,100523.13
2022-11-06T00:13:47.961Z,100505.84
2022-11-06T00:18:49.904Z,100508.59
2022-11-06T00:23:52.360Z,100508.28
2022-11-06T00:28:54.286Z,100488.63
2022-11-06T00:33:57.465Z,100492.00
2022-11-06T00:38:59.797Z,100490.84
2022-11-06T00:44:02.485Z,100486.63
2022-11-06T00:49:03.799Z,100471.75
2022-11-06T00:54:09.620Z,100487.38
2022-11-06T00:59:13.194Z,100479.50
2022-11-06T01:04:20.698Z,100485.84
2022-11-06T01:09:24.482Z,100493.94
2022-11-06T01:14:26.354Z,100483.75
2022-11-06T01:19:27.722Z,100494.47
2022-11-06T01:24:29.573Z,100483.31
2022-11-06T01:29:31.120Z,100480.66
2022-11-06T01:34:32.450Z,100491.59
2022-11-06T01:39:33.743Z,100486.50
2022-11-06T01:44:40.959Z,100479.38
2022-11-06T01:49:42.667Z,100476.66
2022-11-06T01:54:46.527Z,100477.38
2022-11-06T01:59:50.552Z,100468.91
2022-11-06T02:04:51.997Z,100459.44
2022-11-06T02:09:53.331Z,100466.78
2022-11-06T02:15:13.207Z,100455.28
2022-11-06T02:20:28.827Z,100456.03
2022-11-06T02:25:42.112Z,100448.41
2022-11-06T02:30:47.479Z,100436.84
2022-11-06T02:35:59.908Z,100431.94
2022-11-06T02:41:06.849Z,100420.03
2022-11-06T02:46:18.223Z,100420.47
2022-11-06T02:51:24.593Z,100432.44
2022-11-06T02:56:31.067Z,100425.97
2022-11-06T03:01:44.957Z,100429.38
2022-11-06T03:06:59.440Z,100415.38
2022-11-06T03:12:28.444Z,100417.06
2022-11-06T03:17:47.575Z,100429.59
2022-11-06T03:23:10.143Z,100442.06
2022-11-06T03:28:25.534Z,100443.38
2022-11-06T03:33:37.113Z,100433.38
2022-11-06T03:38:43.315Z,100419.38
2022-11-06T03:43:47.634Z,100417.25
2022-11-06T03:48:54.727Z,100424.09
2022-11-06T03:54:02.459Z,100422.06
2022-11-06T03:59:06.958Z,100419.00
2022-11-06T04:04:31.343Z,100419.38
2022-11-06T04:09:55.899Z,100408.56
2022-11-06T04:14:59.189Z,100405.13
2022-11-06T04:20:05.028Z,100396.09
2022-11-06T04:25:37.042Z,100392.72
2022-11-06T04:30:53.030Z,100393.75
2022-11-06T04:36:07.324Z,100389.06
2022-11-06T04:41:17.792Z,100399.31
2022-11-06T04:46:23.428Z,100417.09
2022-11-06T04:51:29.926Z,100410.25
2022-11-06T04:56:35.600Z,100423.63
2022-11-06T05:01:37.971Z,100400.03
2022-11-06T05:06:39.417Z,100406.81
2022-11-06T05:11:40.730Z,100420.78
2022-11-06T05:16:42.213Z,100420.97
2022-11-06T05:22:02.053Z,100415.41
2022-11-06T05:27:03.414Z,100414.09
2022-11-06T05:32:05.023Z,100417.88
2022-11-06T05:37:06.517Z,100398.09
2022-11-06T05:42:07.796Z,100397.50
2022-11-06T05:47:09.194Z,100381.88
2022-11-06T05:52:10.734Z,100384.13
2022-11-06T05:57:12.226Z,100388.28
2022-11-06T06:02:13.643Z,100384.88
2022-11-06T06:07:15.036Z,100381.97
2022-11-06T06:12:19.231Z,100367.72
2022-11-06T06:17:20.941Z,100349.78
2022-11-06T06:22:22.445Z,100355.84
2022-11-06T06:27:25.779Z,100340.66
2022-11-06T06:32:27.066Z,100352.03
2022-11-06T06:37:28.427Z,100346.06
2022-11-06T06:42:31.405Z,100325.69
2022-11-06T06:47:32.908Z,100320.00
2022-11-06T06:52:39.149Z,100313.22
2022-11-06T06:57:43.569Z,100300.53
2022-11-06T07:02:44.834Z,100305.28
2022-11-06T07:07:46.715Z,100309.97
2022-11-06T07:12:48.145Z,100306.81
2022-11-06T07:17:49.492Z,100301.97
2022-11-06T07:22:50.770Z,100297.75
2022-11-06T07:27:52.071Z,100305.38
2022-11-06T07:32:53.423Z,100297.59
2022-11-06T07:37:54.891Z,100294.72
2022-11-06T07:42:56.222Z,100290.81
2022-11-06T07:47:59.217Z,100297.16
2022-11-06T07:53:04.392Z,100296.75
2022-11-06T07:58:05.781Z,100293.34
2022-11-06T08:03:07.046Z,100291.97
2022-11-06T08:08:08.798Z,100293.56
2022-11-06T08:13:11.076Z,100298.78
2022-11-06T08:18:12.905Z,100294.63
2022-11-06T08:23:14.693Z,100292.41
2022-11-06T08:28:16.526Z,100291.88
2022-11-06T08:33:19.015Z,100297.19
2022-11-06T08:38:20.606Z,100289.97
2022-11-06T08:43:26.322Z,100296.09
2022-11-06T08:48:27.736Z,100297.16
2022-11-06T08:53:29.408Z,100281.47
2022-11-06T08:58:31.178Z,100278.31
2022-11-06T09:03:32.570Z,100262.44
2022-11-06T09:08:34.258Z,100250.63
2022-11-06T09:13:35.604Z,100250.53
2022-11-06T09:18:36.884Z,100249.09
2022-11-06T09:23:38.167Z,100246.13
2022-11-06T09:28:39.503Z,100241.38
2022-11-06T09:33:40.838Z,100223.75
2022-11-06T09:38:42.206Z,100213.38
2022-11-06T09:44:12.752Z,100205.56
2022-11-06T09:49:26.326Z,100193.13
2022-11-06T09:54:34.714Z,100182.47
2022-11-06T09:59:38.105Z,100172.59
2022-11-06T10:05:07.465Z,100160.16
2022-11-06T10:10:26.041Z,100164.19
2022-11-06T10:15:39.151Z,100152.47
2022-11-06T10:20:51.639Z,100137.66
2022-11-06T10:25:58.720Z,100121.97
2022-11-06T10:31:15.190Z,100114.66
2022-11-06T10:36:30.259Z,100097.16
2022-11-06T10:41:35.350Z,100101.13
2022-11-06T10:46:40.075Z,100089.13
2022-11-06T10:51:59.681Z,100080.00
2022-11-06T10:57:15.249Z,100083.34
2022-11-06T11:02:25.144Z,100080.81
2022-11-06T11:07:31.410Z,100071.75
2022-11-06T11:12:33.689Z,100053.47
2022-11-06T11:17:35.283Z,100042.53
2022-11-06T11:22:36.602Z,100025.88
2022-11-06T11:27:44.651Z,100019.66
2022-11-06T11:32:46.106Z,100004.59
2022-11-06T11:37:47.604Z,99991.09
2022-11-06T11:42:49.398Z,99981.63
2022-11-06T11:47:51.933Z,99969.59
2022-11-06T11:53:14.708Z,99951.44
2022-11-06T11:58:23.345Z,99928.56
2022-11-06T12:03:29.104Z,99910.66
2022-11-06T12:08:30.919Z,99892.31
2022-11-06T12:13:32.639Z,99877.59
2022-11-06T12:18:47.629Z,99871.47
2022-11-06T12:23:56.190Z,99859.47
2022-11-06T12:29:16.191Z,99850.50
2022-11-06T12:34:26.966Z,99836.81
2022-11-06T12:39:33.941Z,99847.56
2022-11-06T12:44:35.600Z,99825.66
2022-11-06T12:50:03.451Z,99828.19
2022-11-06T12:55:12.083Z,99817.63
2022-11-06T13:00:23.332Z,99816.44
2022-11-06T13:05:29.237Z,99788.59
2022-11-06T13:10:42.527Z,99791.28
2022-11-06T13:15:46.860Z,99791.13
2022-11-06T13:21:13.685Z,99787.44
2022-11-06T13:26:32.393Z,99764.94
2022-11-06T13:31:55.490Z,99755.72
2022-11-06T13:36:58.047Z,99770.09
2022-11-06T13:42:01.360Z,99763.72
2022-11-06T13:47:19.633Z,99769.06
2022-11-06T13:52:26.126Z,99764.34
2022-11-06T13:57:55.801Z,99757.06
2022-11-06T14:03:23.755Z,99737.22
2022-11-06T14:08:30.412Z,99735.88
2022-11-06T14:13:34.546Z,99737.81
2022-11-06T14:18:36.071Z,99728.38
2022-11-06T14:23:37.933Z,99724.94
2022-11-06T14:28:41.831Z,99728.16
2022-11-06T14:33:43.223Z,99731.53
2022-11-06T14:38:45.244Z,99729.50
2022-11-06T14:43:51.151Z,99723.72
2022-11-06T14:48:55.950Z,99720.94
2022-11-06T14:54:07.119Z,99718.03
2022-11-06T14:59:20.652Z,99727.13
2022-11-06T15:04:31.806Z,99729.72
2022-11-06T15:09:39.394Z,99726.28
2022-11-06T15:14:40.680Z,99725.34
2022-11-06T15:19:50.321Z,99731.47
2022-11-06T15:25:03.630Z,99730.03
2022-11-06T15:30:05.872Z,99719.63
2022-11-06T15:35:13.639Z,99696.22
2022-11-06T15:40:29.494Z,99691.53
2022-11-06T15:45:30.902Z,99695.78
2022-11-06T15:50:34.093Z,99703.72
2022-11-06T15:55:38.389Z,99691.75
2022-11-06T16:00:41.420Z,99699.03
2022-11-06T16:05:45.650Z,99690.94
2022-11-06T16:10:50.953Z,99694.88
2022-11-06T16:15:58.821Z,99689.31
2022-11-06T16:21:21.097Z,99689.91
2022-11-06T16:26:27.820Z,99683.72
2022-11-06T16:31:31.261Z,99701.72
2022-11-06T16:36:58.644Z,99708.03
2022-11-06T16:42:09.374Z,99688.56
2022-11-06T16:47:11.796Z,99679.75
2022-11-06T16:52:16.141Z,99689.97
2022-11-06T16:57:21.513Z,99681.84
2022-11-06T17:02:26.717Z,99679.31
2022-11-06T17:07:28.571Z,99701.19
2022-11-06T17:12:29.978Z,99695.75
2022-11-06T17:17:32.752Z,99702.38
2022-11-06T17:22:35.753Z,99728.47
2022-11-06T17:27:37.147Z,99720.34
2022-11-06T17:32:38.756Z,99733.28
2022-11-06T17:37:40.142Z,99715.06
2022-11-06T17:42:41.472Z,99699.06
2022-11-06T17:47:42.964Z,99686.31
2022-11-06T17:52:44.389Z,99675.25
2022-11-06T17:57:45.949Z,99674.13
2022-11-06T18:03:01.034Z,99653.53
2022-11-06T18:08:03.250Z,99656.63
2022-11-06T18:13:05.399Z,99663.22
2022-11-06T18:18:06.731Z,99653.13
2022-11-06T18:23:08.048Z,99636.03
2022-11-06T18:28:09.771Z,99618.38
2022-11-06T18:33:11.117Z,99637.44
2022-11-06T18:38:14.094Z,99644.44
2022-11-06T18:43:15.906Z,99651.59
2022-11-06T18:48:21.344Z,99676.81
2022-11-06T18:53:23.457Z,99693.09
2022-11-06T18:58:24.870Z,99697.41
2022-11-06T19:03:26.561Z,99683.53
2022-11-06T19:08:28.163Z,99683.69
2022-11-06T19:13:29.480Z,99690.13
2022-11-06T19:18:36.474Z,99686.47
2022-11-06T19:23:40.319Z,99685.63
2022-11-06T19:28:42.999Z,99700.50
2022-11-06T19:33:44.612Z,99688.44
2022-11-06T19:38:45.925Z,99693.63
2022-11-06T19:43:47.596Z,99703.84
2022-11-06T19:48:49.022Z,99700.34
2022-11-06T19:53:54.076Z,99698.25
2022-11-06T19:58:55.490Z,99696.84
2022-11-06T20:03:56.869Z,99695.97
2022-11-06T20:08:58.430Z,99700.00
2022-11-06T20:13:59.988Z,99710.66
2022-11-06T20:19:01.867Z,99713.84
2022-11-06T20:24:03.462Z,99724.22
2022-11-06T20:29:05.357Z,99719.34
2022-11-06T20:34:06.688Z,99729.56
2022-11-06T20:39:09.096Z,99740.91
2022-11-06T20:44:10.433Z,99743.47
2022-11-06T20:49:11.768Z,99753.84
2022-11-06T20:54:13.110Z,99764.69
2022-11-06T20:59:14.841Z,99761.34
2022-11-06T21:04:16.587Z,99761.34
2022-11-06T21:09:18.218Z,99757.31
2022-11-06T21:14:19.731Z,99768.00
2022-11-06T21:19:21.074Z,99757.63
2022-11-06T21:24:23.822Z,99768.00
2022-11-06T21:29:25.544Z,99771.34
2022-11-06T21:34:27.114Z,99797.97
2022-11-06T21:39:31.832Z,99784.38
2022-11-06T21:44:37.213Z,99785.06
2022-11-06T21:49:38.655Z,99785.47
2022-11-06T21:54:59.149Z,99779.75
2022-11-06T22:00:01.276Z,99788.16
2022-11-06T22:05:03.124Z,99788.97
2022-11-06T22:10:04.828Z,99790.06
2022-11-06T22:15:06.765Z,99793.16
2022-11-06T22:20:08.695Z,99789.50
2022-11-06T22:25:10.038Z,99802.25
2022-11-06T22:30:12.178Z,99811.91
2022-11-06T22:35:13.470Z,99803.75
2022-11-06T22:40:14.731Z,99811.88
2022-11-06T22:45:16.003Z,99821.84
2022-11-06T22:50:17.263Z,99822.69
2022-11-06T22:55:18.505Z,99832.09
2022-11-06T23:00:22.258Z,99830.28
2022-11-06T23:05:23.498Z,99828.59
2022-11-06T23:10:30.392Z,99843.13
2022-11-06T23:15:33.511Z,99850.09
2022-11-06T23:20:34.941Z,99852.41
2022-11-06T23:25:37.775Z,99853.13
2022-11-06T23:30:39.063Z,99858.97
2022-11-06T23:35:40.404Z,99844.97
2022-11-06T23:40:41.648Z,99859.25
2022-11-06T23:45:49.056Z,99860.34
2022-11-06T23:50:50.328Z,99874.03
2022-11-06T23:55:51.589Z,99861.72
